sensor_id;sensor_type;location;lat;lon;timestamp;temperature;humidity
38118;DHT22;23928;47.562;7.508;2022-09-09T00:02:03;15.60;99.90
38118;DHT22;23928;47.562;7.508;2022-09-09T00:04:33;15.50;99.90
38118;DHT22;23928;47.562;7.508;2022-09-09T00:12:33;15.70;99.90
38118;DHT22;23928;47.562;7.508;2022-09-09T00:15:03;15.70;99.90
38118;DHT22;23928;47.562;7.508;2022-09-09T00:17:51;15.80;99.90
38118;DHT22;23928;47.562;7.508;2022-09-09T00:20:24;15.70;99.90
38118;DHT22;23928;47.562;7.508;2022-09-09T00:25:50;15.70;99.90
38118;DHT22;23928;47.562;7.508;2022-09-09T00:28:23;15.50;99.90
38118;DHT22;23928;47.562;7.508;2022-09-09T00:30:50;15.60;99.90
38118;DHT22;23928;47.562;7.508;2022-09-09T00:33:19;15.70;99.90
38118;DHT22;23928;47.562;7.508;2022-09-09T00:35:57;15.80;99.90
38118;DHT22;23928;47.562;7.508;2022-09-09T00:38:28;15.80;99.90
38118;DHT22;23928;47.562;7.508;2022-09-09T00:49:23;15.30;99.90
38118;DHT22;23928;47.562;7.508;2022-09-09T00:55:07;15.40;99.90
38118;DHT22;23928;47.562;7.508;2022-09-09T00:57:34;15.40;99.90
38118;DHT22;23928;47.562;7.508;2022-09-09T01:06:01;15.30;99.90
38118;DHT22;23928;47.562;7.508;2022-09-09T01:11:33;15.80;99.90
38118;DHT22;23928;47.562;7.508;2022-09-09T01:14:22;15.80;99.90
38118;DHT22;23928;47.562;7.508;2022-09-09T01:16:52;15.80;99.90
38118;DHT22;23928;47.562;7.508;2022-09-09T01:19:37;15.80;99.90
38118;DHT22;23928;47.562;7.508;2022-09-09T01:22:29;15.70;99.90
38118;DHT22;23928;47.562;7.508;2022-09-09T01:27:43;15.80;99.90
38118;DHT22;23928;47.562;7.508;2022-09-09T01:30:14;15.70;99.90
38118;DHT22;23928;47.562;7.508;2022-09-09T01:32:49;15.60;99.90
38118;DHT22;23928;47.562;7.508;2022-09-09T01:38:26;15.60;99.90
38118;DHT22;23928;47.562;7.508;2022-09-09T01:40:53;15.50;99.90
38118;DHT22;23928;47.562;7.508;2022-09-09T01:43:22;15.50;99.90
38118;DHT22;23928;47.562;7.508;2022-09-09T01:45:52;15.60;99.90
38118;DHT22;23928;47.562;7.508;2022-09-09T01:48:19;15.60;99.90
38118;DHT22;23928;47.562;7.508;2022-09-09T01:50:45;15.50;99.90
38118;DHT22;23928;47.562;7.508;2022-09-09T01:53:11;15.40;99.90
38118;DHT22;23928;47.562;7.508;2022-09-09T01:59:48;15.50;99.90
38118;DHT22;23928;47.562;7.508;2022-09-09T02:01:59;15.40;99.90
38118;DHT22;23928;47.562;7.508;2022-09-09T02:07:01;15.30;99.90
38118;DHT22;23928;47.562;7.508;2022-09-09T02:09:29;15.40;99.90
38118;DHT22;23928;47.562;7.508;2022-09-09T02:12:05;15.30;99.90
38118;DHT22;23928;47.562;7.508;2022-09-09T02:14:36;15.30;99.90
38118;DHT22;23928;47.562;7.508;2022-09-09T02:17:09;15.30;99.90
38118;DHT22;23928;47.562;7.508;2022-09-09T02:19:48;15.30;99.90
38118;DHT22;23928;47.562;7.508;2022-09-09T02:22:18;15.20;99.90
38118;DHT22;23928;47.562;7.508;2022-09-09T02:24:45;15.30;99.90
38118;DHT22;23928;47.562;7.508;2022-09-09T02:27:13;15.40;99.90
38118;DHT22;23928;47.562;7.508;2022-09-09T02:29:41;15.20;99.90
38118;DHT22;23928;47.562;7.508;2022-09-09T02:32:12;15.20;99.90
38118;DHT22;23928;47.562;7.508;2022-09-09T02:34:43;15.20;99.90
38118;DHT22;23928;47.562;7.508;2022-09-09T02:37:10;15.30;99.90
38118;DHT22;23928;47.562;7.508;2022-09-09T02:39:36;15.40;99.90
38118;DHT22;23928;47.562;7.508;2022-09-09T02:42:03;15.40;99.90
38118;DHT22;23928;47.562;7.508;2022-09-09T02:44:29;15.40;99.90
38118;DHT22;23928;47.562;7.508;2022-09-09T02:55:09;15.40;99.90
38118;DHT22;23928;47.562;7.508;2022-09-09T02:57:37;15.40;99.90
38118;DHT22;23928;47.562;7.508;2022-09-09T03:00:04;15.40;99.90
38118;DHT22;23928;47.562;7.508;2022-09-09T03:02:30;15.40;99.90
38118;DHT22;23928;47.562;7.508;2022-09-09T03:04:56;15.40;99.90
38118;DHT22;23928;47.562;7.508;2022-09-09T03:07:22;15.40;99.90
38118;DHT22;23928;47.562;7.508;2022-09-09T03:09:47;15.40;99.90
38118;DHT22;23928;47.562;7.508;2022-09-09T03:12:14;15.50;99.90
38118;DHT22;23928;47.562;7.508;2022-09-09T03:14:39;15.60;99.90
38118;DHT22;23928;47.562;7.508;2022-09-09T03:17:06;15.70;99.90
38118;DHT22;23928;47.562;7.508;2022-09-09T03:19:31;15.70;99.90
38118;DHT22;23928;47.562;7.508;2022-09-09T03:21:58;15.70;99.90
38118;DHT22;23928;47.562;7.508;2022-09-09T03:24:24;15.70;99.90
38118;DHT22;23928;47.562;7.508;2022-09-09T03:26:50;15.70;99.90
38118;DHT22;23928;47.562;7.508;2022-09-09T03:29:16;15.70;99.90
38118;DHT22;23928;47.562;7.508;2022-09-09T03:31:43;15.60;99.90
38118;DHT22;23928;47.562;7.508;2022-09-09T03:34:09;15.70;99.90
38118;DHT22;23928;47.562;7.508;2022-09-09T03:36:35;15.70;99.90
38118;DHT22;23928;47.562;7.508;2022-09-09T03:39:00;15.70;99.90
38118;DHT22;23928;47.562;7.508;2022-09-09T03:41:28;15.60;99.90
38118;DHT22;23928;47.562;7.508;2022-09-09T03:43:54;15.60;99.90
38118;DHT22;23928;47.562;7.508;2022-09-09T03:46:22;15.60;99.90
38118;DHT22;23928;47.562;7.508;2022-09-09T03:48:48;15.40;99.90
38118;DHT22;23928;47.562;7.508;2022-09-09T03:51:14;15.30;99.90
38118;DHT22;23928;47.562;7.508;2022-09-09T03:53:40;15.40;99.90
38118;DHT22;23928;47.562;7.508;2022-09-09T03:56:06;15.50;99.90
38118;DHT22;23928;47.562;7.508;2022-09-09T03:58:33;15.40;99.90
38118;DHT22;23928;47.562;7.508;2022-09-09T04:03:30;15.40;99.90
38118;DHT22;23928;47.562;7.508;2022-09-09T04:05:58;15.40;99.90
38118;DHT22;23928;47.562;7.508;2022-09-09T04:08:25;15.50;99.90
38118;DHT22;23928;47.562;7.508;2022-09-09T04:10:51;15.40;99.90
38118;DHT22;23928;47.562;7.508;2022-09-09T04:13:18;15.30;99.90
38118;DHT22;23928;47.562;7.508;2022-09-09T04:15:50;15.40;99.90
38118;DHT22;23928;47.562;7.508;2022-09-09T04:18:16;15.50;99.90
38118;DHT22;23928;47.562;7.508;2022-09-09T04:20:42;15.50;99.90
38118;DHT22;23928;47.562;7.508;2022-09-09T04:23:09;15.60;99.90
38118;DHT22;23928;47.562;7.508;2022-09-09T04:25:34;15.50;99.90
38118;DHT22;23928;47.562;7.508;2022-09-09T04:28:00;15.50;99.90
38118;DHT22;23928;47.562;7.508;2022-09-09T04:30:26;15.50;99.90
38118;DHT22;23928;47.562;7.508;2022-09-09T04:32:52;15.50;99.90
38118;DHT22;23928;47.562;7.508;2022-09-09T04:35:18;15.50;99.90
38118;DHT22;23928;47.562;7.508;2022-09-09T04:37:45;15.50;99.90
38118;DHT22;23928;47.562;7.508;2022-09-09T04:40:11;15.50;99.90
38118;DHT22;23928;47.562;7.508;2022-09-09T04:42:37;15.50;99.90
38118;DHT22;23928;47.562;7.508;2022-09-09T04:45:05;15.40;99.90
38118;DHT22;23928;47.562;7.508;2022-09-09T04:47:31;15.50;99.90
38118;DHT22;23928;47.562;7.508;2022-09-09T04:49:57;15.60;99.90
38118;DHT22;23928;47.562;7.508;2022-09-09T04:52:22;15.60;99.90
38118;DHT22;23928;47.562;7.508;2022-09-09T04:54:48;15.60;99.90
38118;DHT22;23928;47.562;7.508;2022-09-09T04:57:14;15.60;99.90
38118;DHT22;23928;47.562;7.508;2022-09-09T04:59:39;15.40;99.90
38118;DHT22;23928;47.562;7.508;2022-09-09T05:02:05;15.40;99.90
38118;DHT22;23928;47.562;7.508;2022-09-09T05:04:31;15.30;99.90
38118;DHT22;23928;47.562;7.508;2022-09-09T05:06:58;15.20;99.90
38118;DHT22;23928;47.562;7.508;2022-09-09T05:09:24;15.20;99.90
38118;DHT22;23928;47.562;7.508;2022-09-09T05:11:50;15.50;99.90
38118;DHT22;23928;47.562;7.508;2022-09-09T05:14:16;15.80;99.90
38118;DHT22;23928;47.562;7.508;2022-09-09T05:16:44;15.90;99.90
38118;DHT22;23928;47.562;7.508;2022-09-09T05:19:10;15.90;99.90
38118;DHT22;23928;47.562;7.508;2022-09-09T05:21:35;15.90;99.90
38118;DHT22;23928;47.562;7.508;2022-09-09T05:24:01;16.00;99.90
38118;DHT22;23928;47.562;7.508;2022-09-09T05:26:27;15.90;99.90
38118;DHT22;23928;47.562;7.508;2022-09-09T05:28:54;15.80;99.90
38118;DHT22;23928;47.562;7.508;2022-09-09T05:31:20;15.70;99.90
38118;DHT22;23928;47.562;7.508;2022-09-09T05:33:47;15.80;99.90
38118;DHT22;23928;47.562;7.508;2022-09-09T05:36:16;15.70;99.90
38118;DHT22;23928;47.562;7.508;2022-09-09T05:38:43;15.80;99.90
38118;DHT22;23928;47.562;7.508;2022-09-09T05:41:10;15.80;99.90
38118;DHT22;23928;47.562;7.508;2022-09-09T05:43:40;15.90;99.90
38118;DHT22;23928;47.562;7.508;2022-09-09T05:46:16;15.90;99.90
38118;DHT22;23928;47.562;7.508;2022-09-09T05:48:44;15.90;99.90
38118;DHT22;23928;47.562;7.508;2022-09-09T05:51:15;15.80;99.90
38118;DHT22;23928;47.562;7.508;2022-09-09T05:53:41;15.80;99.90
38118;DHT22;23928;47.562;7.508;2022-09-09T05:56:10;15.80;99.90
38118;DHT22;23928;47.562;7.508;2022-09-09T05:58:37;15.80;99.90
38118;DHT22;23928;47.562;7.508;2022-09-09T06:01:08;15.80;99.90
38118;DHT22;23928;47.562;7.508;2022-09-09T06:03:36;15.80;99.90
38118;DHT22;23928;47.562;7.508;2022-09-09T06:06:04;15.90;99.90
38118;DHT22;23928;47.562;7.508;2022-09-09T06:08:37;15.90;99.90
38118;DHT22;23928;47.562;7.508;2022-09-09T06:11:15;16.10;99.90
38118;DHT22;23928;47.562;7.508;2022-09-09T06:13:41;16.20;99.90
38118;DHT22;23928;47.562;7.508;2022-09-09T06:16:17;16.20;99.90
38118;DHT22;23928;47.562;7.508;2022-09-09T06:18:43;16.20;99.90
38118;DHT22;23928;47.562;7.508;2022-09-09T06:21:15;16.30;99.90
38118;DHT22;23928;47.562;7.508;2022-09-09T06:23:41;16.40;99.90
38118;DHT22;23928;47.562;7.508;2022-09-09T06:26:11;16.50;99.90
38118;DHT22;23928;47.562;7.508;2022-09-09T06:28:38;16.50;99.90
38118;DHT22;23928;47.562;7.508;2022-09-09T06:31:09;16.60;99.90
38118;DHT22;23928;47.562;7.508;2022-09-09T06:33:39;16.60;99.90
38118;DHT22;23928;47.562;7.508;2022-09-09T06:36:10;16.70;99.90
38118;DHT22;23928;47.562;7.508;2022-09-09T06:38:36;16.70;99.90
38118;DHT22;23928;47.562;7.508;2022-09-09T06:41:02;16.70;99.90
38118;DHT22;23928;47.562;7.508;2022-09-09T06:43:28;16.80;99.90
38118;DHT22;23928;47.562;7.508;2022-09-09T06:45:59;16.80;99.90
38118;DHT22;23928;47.562;7.508;2022-09-09T06:48:26;16.80;99.90
38118;DHT22;23928;47.562;7.508;2022-09-09T06:51:11;16.80;99.90
38118;DHT22;23928;47.562;7.508;2022-09-09T06:53:38;16.80;99.90
38118;DHT22;23928;47.562;7.508;2022-09-09T06:58:42;16.80;99.90
38118;DHT22;23928;47.562;7.508;2022-09-09T07:01:10;16.90;99.90
38118;DHT22;23928;47.562;7.508;2022-09-09T07:03:38;17.00;99.90
38118;DHT22;23928;47.562;7.508;2022-09-09T07:06:04;17.00;99.90
38118;DHT22;23928;47.562;7.508;2022-09-09T07:08:31;17.00;99.90
38118;DHT22;23928;47.562;7.508;2022-09-09T07:11:04;17.00;99.90
38118;DHT22;23928;47.562;7.508;2022-09-09T07:13:30;17.00;99.90
38118;DHT22;23928;47.562;7.508;2022-09-09T07:16:07;17.20;99.90
38118;DHT22;23928;47.562;7.508;2022-09-09T07:18:33;17.30;99.90
38118;DHT22;23928;47.562;7.508;2022-09-09T07:20:59;17.60;99.90
38118;DHT22;23928;47.562;7.508;2022-09-09T07:23:24;17.70;99.90
38118;DHT22;23928;47.562;7.508;2022-09-09T07:25:51;17.80;99.90
38118;DHT22;23928;47.562;7.508;2022-09-09T07:28:18;17.80;99.90
38118;DHT22;23928;47.562;7.508;2022-09-09T07:30:53;17.80;99.90
38118;DHT22;23928;47.562;7.508;2022-09-09T07:33:19;18.00;99.90
38118;DHT22;23928;47.562;7.508;2022-09-09T07:35:45;17.90;99.90
38118;DHT22;23928;47.562;7.508;2022-09-09T07:38:11;18.00;99.90
38118;DHT22;23928;47.562;7.508;2022-09-09T07:40:37;18.20;99.90
38118;DHT22;23928;47.562;7.508;2022-09-09T07:43:03;18.30;99.90
38118;DHT22;23928;47.562;7.508;2022-09-09T07:45:28;18.30;99.90
38118;DHT22;23928;47.562;7.508;2022-09-09T07:47:54;18.20;99.90
38118;DHT22;23928;47.562;7.508;2022-09-09T07:50:22;18.20;99.90
38118;DHT22;23928;47.562;7.508;2022-09-09T07:52:49;18.20;99.90
38118;DHT22;23928;47.562;7.508;2022-09-09T07:55:14;18.20;99.90
38118;DHT22;23928;47.562;7.508;2022-09-09T07:57:40;18.30;99.90
38118;DHT22;23928;47.562;7.508;2022-09-09T08:00:06;18.10;99.90
38118;DHT22;23928;47.562;7.508;2022-09-09T08:02:32;18.00;99.90
38118;DHT22;23928;47.562;7.508;2022-09-09T08:04:58;17.90;99.90
38118;DHT22;23928;47.562;7.508;2022-09-09T08:07:23;17.70;99.90
38118;DHT22;23928;47.562;7.508;2022-09-09T08:09:49;17.70;99.90
38118;DHT22;23928;47.562;7.508;2022-09-09T08:12:15;17.90;99.90
38118;DHT22;23928;47.562;7.508;2022-09-09T08:14:41;17.90;99.90
38118;DHT22;23928;47.562;7.508;2022-09-09T08:17:07;18.20;99.90
38118;DHT22;23928;47.562;7.508;2022-09-09T08:19:33;18.40;99.90
38118;DHT22;23928;47.562;7.508;2022-09-09T08:22:02;18.50;99.90
38118;DHT22;23928;47.562;7.508;2022-09-09T08:24:28;18.50;99.90
38118;DHT22;23928;47.562;7.508;2022-09-09T08:26:54;18.50;99.90
38118;DHT22;23928;47.562;7.508;2022-09-09T08:29:21;18.70;99.90
38118;DHT22;23928;47.562;7.508;2022-09-09T08:31:49;18.80;99.90
38118;DHT22;23928;47.562;7.508;2022-09-09T08:34:15;18.90;99.90
38118;DHT22;23928;47.562;7.508;2022-09-09T08:36:43;19.10;99.90
38118;DHT22;23928;47.562;7.508;2022-09-09T08:39:12;19.20;99.90
38118;DHT22;23928;47.562;7.508;2022-09-09T08:47:08;19.40;99.90
38118;DHT22;23928;47.562;7.508;2022-09-09T08:55:15;19.60;99.90
38118;DHT22;23928;47.562;7.508;2022-09-09T08:57:44;19.50;99.90
38118;DHT22;23928;47.562;7.508;2022-09-09T09:00:11;19.30;99.90
38118;DHT22;23928;47.562;7.508;2022-09-09T09:05:32;19.90;99.90
38118;DHT22;23928;47.562;7.508;2022-09-09T09:08:23;20.20;99.90
38118;DHT22;23928;47.562;7.508;2022-09-09T09:10:53;20.30;99.90
38118;DHT22;23928;47.562;7.508;2022-09-09T09:16:29;20.00;99.90
38118;DHT22;23928;47.562;7.508;2022-09-09T09:18:58;19.90;99.90
38118;DHT22;23928;47.562;7.508;2022-09-09T09:21:34;19.90;99.90
38118;DHT22;23928;47.562;7.508;2022-09-09T09:24:01;20.00;99.90
38118;DHT22;23928;47.562;7.508;2022-09-09T09:26:33;19.90;99.90
38118;DHT22;23928;47.562;7.508;2022-09-09T09:28:59;20.10;99.90
38118;DHT22;23928;47.562;7.508;2022-09-09T09:31:26;20.10;99.90
38118;DHT22;23928;47.562;7.508;2022-09-09T09:33:56;20.30;99.90
38118;DHT22;23928;47.562;7.508;2022-09-09T09:36:56;20.20;99.90
38118;DHT22;23928;47.562;7.508;2022-09-09T09:39:29;20.10;99.90
38118;DHT22;23928;47.562;7.508;2022-09-09T09:41:56;20.00;99.90
38118;DHT22;23928;47.562;7.508;2022-09-09T09:44:27;20.10;99.90
38118;DHT22;23928;47.562;7.508;2022-09-09T09:47:05;20.20;99.90
38118;DHT22;23928;47.562;7.508;2022-09-09T09:49:31;20.40;99.90
38118;DHT22;23928;47.562;7.508;2022-09-09T09:52:02;20.60;99.90
38118;DHT22;23928;47.562;7.508;2022-09-09T09:54:33;20.70;99.90
38118;DHT22;23928;47.562;7.508;2022-09-09T09:57:14;20.70;99.90
38118;DHT22;23928;47.562;7.508;2022-09-09T09:59:40;21.00;99.90
38118;DHT22;23928;47.562;7.508;2022-09-09T10:02:21;20.90;99.90
38118;DHT22;23928;47.562;7.508;2022-09-09T10:05:04;21.00;99.90
38118;DHT22;23928;47.562;7.508;2022-09-09T10:07:29;21.10;99.90
38118;DHT22;23928;47.562;7.508;2022-09-09T10:09:57;21.00;99.90
38118;DHT22;23928;47.562;7.508;2022-09-09T10:21:12;21.60;99.90
38118;DHT22;23928;47.562;7.508;2022-09-09T10:23:52;21.90;99.90
38118;DHT22;23928;47.562;7.508;2022-09-09T10:40:33;21.00;99.90
38118;DHT22;23928;47.562;7.508;2022-09-09T10:51:22;21.30;99.90
38118;DHT22;23928;47.562;7.508;2022-09-09T10:56:24;21.30;99.90
38118;DHT22;23928;47.562;7.508;2022-09-09T10:58:54;21.60;99.90
38118;DHT22;23928;47.562;7.508;2022-09-09T11:01:25;22.00;99.90
38118;DHT22;23928;47.562;7.508;2022-09-09T11:04:01;21.80;99.90
38118;DHT22;23928;47.562;7.508;2022-09-09T11:06:37;21.00;99.90
38118;DHT22;23928;47.562;7.508;2022-09-09T11:09:04;21.10;99.90
38118;DHT22;23928;47.562;7.508;2022-09-09T11:11:42;20.90;99.90
38118;DHT22;23928;47.562;7.508;2022-09-09T11:14:39;20.70;99.90
38118;DHT22;23928;47.562;7.508;2022-09-09T11:17:15;21.00;99.90
38118;DHT22;23928;47.562;7.508;2022-09-09T11:19:43;21.20;99.90
38118;DHT22;23928;47.562;7.508;2022-09-09T11:22:29;21.40;99.90
38118;DHT22;23928;47.562;7.508;2022-09-09T11:30:16;21.40;99.90
38118;DHT22;23928;47.562;7.508;2022-09-09T11:38:29;20.80;99.90
38118;DHT22;23928;47.562;7.508;2022-09-09T11:40:59;20.70;99.90
38118;DHT22;23928;47.562;7.508;2022-09-09T11:43:46;20.80;99.90
38118;DHT22;23928;47.562;7.508;2022-09-09T11:46:18;20.90;99.90
38118;DHT22;23928;47.562;7.508;2022-09-09T11:48:57;21.00;99.90
38118;DHT22;23928;47.562;7.508;2022-09-09T11:51:27;21.50;99.90
38118;DHT22;23928;47.562;7.508;2022-09-09T11:54:00;22.00;99.90
38118;DHT22;23928;47.562;7.508;2022-09-09T11:59:05;21.60;99.90
38118;DHT22;23928;47.562;7.508;2022-09-09T12:01:44;21.50;99.90
38118;DHT22;23928;47.562;7.508;2022-09-09T12:04:30;21.30;99.90
38118;DHT22;23928;47.562;7.508;2022-09-09T12:15:17;21.80;99.90
38118;DHT22;23928;47.562;7.508;2022-09-09T12:17:47;21.80;99.90
38118;DHT22;23928;47.562;7.508;2022-09-09T12:23:17;21.80;99.90
38118;DHT22;23928;47.562;7.508;2022-09-09T12:26:16;21.60;99.90
38118;DHT22;23928;47.562;7.508;2022-09-09T12:32:20;21.00;99.90
38118;DHT22;23928;47.562;7.508;2022-09-09T12:39:58;20.70;99.90
38118;DHT22;23928;47.562;7.508;2022-09-09T12:42:25;20.60;99.90
38118;DHT22;23928;47.562;7.508;2022-09-09T12:47:18;20.70;99.90
38118;DHT22;23928;47.562;7.508;2022-09-09T12:49:47;20.50;99.90
38118;DHT22;23928;47.562;7.508;2022-09-09T12:54:47;20.70;99.90
38118;DHT22;23928;47.562;7.508;2022-09-09T12:57:13;20.80;99.90
38118;DHT22;23928;47.562;7.508;2022-09-09T12:59:42;20.70;99.90
38118;DHT22;23928;47.562;7.508;2022-09-09T13:02:21;20.80;99.90
38118;DHT22;23928;47.562;7.508;2022-09-09T13:04:48;20.90;99.90
38118;DHT22;23928;47.562;7.508;2022-09-09T13:07:16;20.70;99.90
38118;DHT22;23928;47.562;7.508;2022-09-09T13:09:44;20.70;99.90
38118;DHT22;23928;47.562;7.508;2022-09-09T13:12:19;21.20;99.90
38118;DHT22;23928;47.562;7.508;2022-09-09T13:14:52;21.90;99.90
38118;DHT22;23928;47.562;7.508;2022-09-09T13:17:24;22.40;99.90
38118;DHT22;23928;47.562;7.508;2022-09-09T13:19:51;22.60;99.90
38118;DHT22;23928;47.562;7.508;2022-09-09T13:22:31;22.80;99.90
38118;DHT22;23928;47.562;7.508;2022-09-09T13:25:05;22.60;99.90
38118;DHT22;23928;47.562;7.508;2022-09-09T13:27:36;22.30;99.90
38118;DHT22;23928;47.562;7.508;2022-09-09T13:33:17;22.40;99.90
38118;DHT22;23928;47.562;7.508;2022-09-09T13:38:18;22.40;99.90
38118;DHT22;23928;47.562;7.508;2022-09-09T13:40:59;22.80;99.90
38118;DHT22;23928;47.562;7.508;2022-09-09T13:43:28;22.60;99.90
38118;DHT22;23928;47.562;7.508;2022-09-09T13:45:57;23.00;99.90
38118;DHT22;23928;47.562;7.508;2022-09-09T13:48:23;23.20;99.90
38118;DHT22;23928;47.562;7.508;2022-09-09T13:51:26;23.20;99.90
38118;DHT22;23928;47.562;7.508;2022-09-09T13:53:53;23.30;99.90
38118;DHT22;23928;47.562;7.508;2022-09-09T13:56:19;23.10;99.90
38118;DHT22;23928;47.562;7.508;2022-09-09T13:58:45;23.30;99.90
38118;DHT22;23928;47.562;7.508;2022-09-09T14:01:11;23.10;99.90
38118;DHT22;23928;47.562;7.508;2022-09-09T14:03:36;23.20;99.90
38118;DHT22;23928;47.562;7.508;2022-09-09T14:06:02;23.10;99.90
38118;DHT22;23928;47.562;7.508;2022-09-09T14:08:28;23.30;99.90
38118;DHT22;23928;47.562;7.508;2022-09-09T14:11:02;23.60;99.90
38118;DHT22;23928;47.562;7.508;2022-09-09T14:13:28;23.40;99.90
38118;DHT22;23928;47.562;7.508;2022-09-09T14:15:54;23.30;99.90
38118;DHT22;23928;47.562;7.508;2022-09-09T14:18:19;23.40;99.90
38118;DHT22;23928;47.562;7.508;2022-09-09T14:20:47;22.90;99.90
38118;DHT22;23928;47.562;7.508;2022-09-09T14:23:13;22.40;99.90
38118;DHT22;23928;47.562;7.508;2022-09-09T14:25:42;22.50;99.90
38118;DHT22;23928;47.562;7.508;2022-09-09T14:28:10;22.70;99.90
38118;DHT22;23928;47.562;7.508;2022-09-09T14:30:38;22.50;99.90
38118;DHT22;23928;47.562;7.508;2022-09-09T14:33:04;22.90;99.90
38118;DHT22;23928;47.562;7.508;2022-09-09T14:35:29;23.10;99.90
38118;DHT22;23928;47.562;7.508;2022-09-09T14:37:55;22.90;99.90
38118;DHT22;23928;47.562;7.508;2022-09-09T14:40:21;22.90;99.90
38118;DHT22;23928;47.562;7.508;2022-09-09T14:42:47;23.00;99.90
38118;DHT22;23928;47.562;7.508;2022-09-09T14:45:13;22.90;99.90
38118;DHT22;23928;47.562;7.508;2022-09-09T14:47:38;22.50;99.90
38118;DHT22;23928;47.562;7.508;2022-09-09T14:50:05;22.30;99.90
38118;DHT22;23928;47.562;7.508;2022-09-09T14:52:31;22.40;99.90
38118;DHT22;23928;47.562;7.508;2022-09-09T14:54:57;22.40;99.90
38118;DHT22;23928;47.562;7.508;2022-09-09T14:57:22;22.40;99.90
38118;DHT22;23928;47.562;7.508;2022-09-09T14:59:48;22.40;99.90
38118;DHT22;23928;47.562;7.508;2022-09-09T15:02:15;22.40;99.90
38118;DHT22;23928;47.562;7.508;2022-09-09T15:04:41;22.50;99.90
38118;DHT22;23928;47.562;7.508;2022-09-09T15:07:07;22.60;99.90
38118;DHT22;23928;47.562;7.508;2022-09-09T15:09:33;22.60;99.90
38118;DHT22;23928;47.562;7.508;2022-09-09T15:11:58;22.20;99.90
38118;DHT22;23928;47.562;7.508;2022-09-09T15:14:25;21.80;99.90
38118;DHT22;23928;47.562;7.508;2022-09-09T15:16:51;21.70;99.90
38118;DHT22;23928;47.562;7.508;2022-09-09T15:19:17;22.00;99.90
38118;DHT22;23928;47.562;7.508;2022-09-09T15:21:42;21.90;99.90
38118;DHT22;23928;47.562;7.508;2022-09-09T15:24:08;21.90;99.90
38118;DHT22;23928;47.562;7.508;2022-09-09T15:26:34;21.70;99.90
38118;DHT22;23928;47.562;7.508;2022-09-09T15:29:03;21.40;99.90
38118;DHT22;23928;47.562;7.508;2022-09-09T15:31:31;21.10;99.90
38118;DHT22;23928;47.562;7.508;2022-09-09T15:34:06;21.10;99.90
38118;DHT22;23928;47.562;7.508;2022-09-09T15:36:40;21.00;99.90
38118;DHT22;23928;47.562;7.508;2022-09-09T15:39:08;20.90;99.90
38118;DHT22;23928;47.562;7.508;2022-09-09T15:41:38;20.70;99.90
38118;DHT22;23928;47.562;7.508;2022-09-09T15:44:04;20.50;99.90
38118;DHT22;23928;47.562;7.508;2022-09-09T15:46:36;20.40;99.90
38118;DHT22;23928;47.562;7.508;2022-09-09T15:49:17;20.20;99.90
38118;DHT22;23928;47.562;7.508;2022-09-09T15:51:46;19.60;99.90
38118;DHT22;23928;47.562;7.508;2022-09-09T15:54:16;19.40;99.90
38118;DHT22;23928;47.562;7.508;2022-09-09T15:56:44;19.40;99.90
38118;DHT22;23928;47.562;7.508;2022-09-09T15:59:10;19.30;99.90
38118;DHT22;23928;47.562;7.508;2022-09-09T16:01:36;19.10;99.90
38118;DHT22;23928;47.562;7.508;2022-09-09T16:04:04;19.20;99.90
38118;DHT22;23928;47.562;7.508;2022-09-09T16:06:29;19.00;99.90
38118;DHT22;23928;47.562;7.508;2022-09-09T16:08:57;19.00;99.90
38118;DHT22;23928;47.562;7.508;2022-09-09T16:11:26;19.00;99.90
38118;DHT22;23928;47.562;7.508;2022-09-09T16:13:53;19.10;99.90
38118;DHT22;23928;47.562;7.508;2022-09-09T16:16:21;19.10;99.90
38118;DHT22;23928;47.562;7.508;2022-09-09T16:18:49;19.20;99.90
38118;DHT22;23928;47.562;7.508;2022-09-09T16:21:23;19.30;99.90
38118;DHT22;23928;47.562;7.508;2022-09-09T16:23:52;19.40;99.90
38118;DHT22;23928;47.562;7.508;2022-09-09T16:26:21;19.60;99.90
38118;DHT22;23928;47.562;7.508;2022-09-09T16:28:48;19.70;99.90
38118;DHT22;23928;47.562;7.508;2022-09-09T16:31:16;19.80;99.90
38118;DHT22;23928;47.562;7.508;2022-09-09T16:33:43;19.70;99.90
38118;DHT22;23928;47.562;7.508;2022-09-09T16:36:11;19.80;99.90
38118;DHT22;23928;47.562;7.508;2022-09-09T16:38:38;19.60;99.90
38118;DHT22;23928;47.562;7.508;2022-09-09T16:41:05;19.60;99.90
38118;DHT22;23928;47.562;7.508;2022-09-09T16:43:32;19.70;99.90
38118;DHT22;23928;47.562;7.508;2022-09-09T16:45:58;19.50;99.90
38118;DHT22;23928;47.562;7.508;2022-09-09T16:48:27;19.50;99.90
38118;DHT22;23928;47.562;7.508;2022-09-09T16:50:52;19.50;99.90
38118;DHT22;23928;47.562;7.508;2022-09-09T16:53:18;19.50;99.90
38118;DHT22;23928;47.562;7.508;2022-09-09T16:55:44;19.50;99.90
38118;DHT22;23928;47.562;7.508;2022-09-09T16:58:12;19.60;99.90
38118;DHT22;23928;47.562;7.508;2022-09-09T17:00:38;19.60;99.90
38118;DHT22;23928;47.562;7.508;2022-09-09T17:03:04;19.50;99.90
38118;DHT22;23928;47.562;7.508;2022-09-09T17:05:29;19.50;99.90
38118;DHT22;23928;47.562;7.508;2022-09-09T17:07:55;19.50;99.90
38118;DHT22;23928;47.562;7.508;2022-09-09T17:10:23;19.50;99.90
38118;DHT22;23928;47.562;7.508;2022-09-09T17:12:50;19.20;99.90
38118;DHT22;23928;47.562;7.508;2022-09-09T17:15:16;19.20;99.90
38118;DHT22;23928;47.562;7.508;2022-09-09T17:17:43;19.00;99.90
38118;DHT22;23928;47.562;7.508;2022-09-09T17:20:10;18.90;99.90
38118;DHT22;23928;47.562;7.508;2022-09-09T17:22:36;18.90;99.90
38118;DHT22;23928;47.562;7.508;2022-09-09T17:25:02;18.80;99.90
38118;DHT22;23928;47.562;7.508;2022-09-09T17:27:28;18.70;99.90
38118;DHT22;23928;47.562;7.508;2022-09-09T17:29:57;18.60;99.90
38118;DHT22;23928;47.562;7.508;2022-09-09T17:32:22;18.60;99.90
38118;DHT22;23928;47.562;7.508;2022-09-09T17:34:48;18.50;99.90
38118;DHT22;23928;47.562;7.508;2022-09-09T17:37:14;18.40;99.90
38118;DHT22;23928;47.562;7.508;2022-09-09T17:39:39;18.40;99.90
38118;DHT22;23928;47.562;7.508;2022-09-09T17:42:05;18.30;99.90
38118;DHT22;23928;47.562;7.508;2022-09-09T17:44:32;18.30;99.90
38118;DHT22;23928;47.562;7.508;2022-09-09T17:46:58;18.30;99.90
38118;DHT22;23928;47.562;7.508;2022-09-09T17:49:25;18.20;99.90
38118;DHT22;23928;47.562;7.508;2022-09-09T17:51:51;17.90;99.90
38118;DHT22;23928;47.562;7.508;2022-09-09T17:54:19;17.90;99.90
38118;DHT22;23928;47.562;7.508;2022-09-09T17:56:46;18.00;99.90
38118;DHT22;23928;47.562;7.508;2022-09-09T17:59:13;17.90;99.90
38118;DHT22;23928;47.562;7.508;2022-09-09T18:01:42;17.80;99.90
38118;DHT22;23928;47.562;7.508;2022-09-09T18:04:09;17.60;99.90
38118;DHT22;23928;47.562;7.508;2022-09-09T18:06:39;17.50;99.90
38118;DHT22;23928;47.562;7.508;2022-09-09T18:09:09;17.40;99.90
38118;DHT22;23928;47.562;7.508;2022-09-09T18:11:38;17.50;99.90